createdAt,value
2022-10-13T00:00:07.430Z,76.73
2022-10-13T00:01:14.301Z,76.88
2022-10-13T00:02:16.008Z,76.98
2022-10-13T00:03:17.773Z,77.42
2022-10-13T00:04:19.166Z,77.10
2022-10-13T00:05:21.314Z,76.85
2022-10-13T00:06:26.845Z,76.75
2022-10-13T00:07:28.277Z,77.17
2022-10-13T00:08:30.190Z,77.35
2022-10-13T00:09:31.626Z,77.04
2022-10-13T00:10:37.640Z,77.15
2022-10-13T00:11:39.217Z,77.51
2022-10-13T00:12:40.680Z,77.55
2022-10-13T00:13:42.277Z,77.33
2022-10-13T00:14:44.014Z,77.27
2022-10-13T00:15:46.925Z,76.91
2022-10-13T00:16:48.241Z,76.55
2022-10-13T00:17:49.946Z,76.28
2022-10-13T00:18:51.748Z,76.24
2022-10-13T00:19:53.298Z,76.71
2022-10-13T00:20:54.802Z,76.44
2022-10-13T00:21:56.243Z,76.13
2022-10-13T00:22:57.726Z,76.07
2022-10-13T00:23:59.549Z,76.13
2022-10-13T00:25:01.004Z,75.97
2022-10-13T00:26:08.499Z,76.35
2022-10-13T00:27:09.898Z,76.14
2022-10-13T00:28:12.060Z,76.41
2022-10-13T00:29:13.518Z,76.47
2022-10-13T00:30:15.400Z,76.39
2022-10-13T00:31:19.920Z,76.09
2022-10-13T00:32:21.534Z,76.10
2022-10-13T00:33:23.162Z,76.02
2022-10-13T00:34:24.598Z,76.62
2022-10-13T00:35:26.399Z,76.38
2022-10-13T00:36:29.047Z,76.48
2022-10-13T00:37:30.489Z,76.55
2022-10-13T00:38:31.915Z,76.56
2022-10-13T00:39:33.387Z,76.47
2022-10-13T00:40:35.137Z,76.31
2022-10-13T00:41:36.687Z,77.00
2022-10-13T00:42:41.167Z,76.54
2022-10-13T00:44:00.929Z,76.75
2022-10-13T00:45:22.759Z,76.63
2022-10-13T00:46:27.341Z,76.65
2022-10-13T00:47:34.737Z,76.62
2022-10-13T00:48:36.145Z,76.50
2022-10-13T00:49:38.288Z,75.89
2022-10-13T00:50:42.130Z,75.80
2022-10-13T00:51:50.408Z,76.21
2022-10-13T00:52:54.298Z,76.34
2022-10-13T00:53:57.424Z,76.59
2022-10-13T00:55:00.341Z,76.80
2022-10-13T00:56:02.303Z,76.98
2022-10-13T00:57:05.921Z,77.23
2022-10-13T00:58:11.531Z,77.35
2022-10-13T00:59:23.050Z,76.84
2022-10-13T01:00:25.744Z,77.09
2022-10-13T01:01:27.212Z,76.60
2022-10-13T01:02:33.724Z,76.97
2022-10-13T01:03:36.150Z,76.42
2022-10-13T01:04:43.324Z,76.66
2022-10-13T01:05:45.990Z,76.49
2022-10-13T01:06:47.448Z,77.05
2022-10-13T01:07:50.180Z,77.07
2022-10-13T01:08:51.812Z,76.85
2022-10-13T01:09:53.317Z,77.20
2022-10-13T01:11:31.339Z,77.02
2022-10-13T01:12:52.589Z,76.63
2022-10-13T01:14:14.782Z,76.72
2022-10-13T01:15:16.203Z,76.88
2022-10-13T01:16:39.758Z,76.91
2022-10-13T01:17:50.138Z,76.85
2022-10-13T01:19:10.240Z,76.88
2022-10-13T01:20:34.935Z,76.96
2022-10-13T01:21:48.031Z,77.23
2022-10-13T01:23:23.625Z,76.23
2022-10-13T01:24:24.974Z,76.35
2022-10-13T01:25:52.970Z,76.31
2022-10-13T01:26:57.130Z,76.31
2022-10-13T01:28:37.778Z,76.65
2022-10-13T01:30:00.547Z,76.50
2022-10-13T01:31:15.949Z,76.62
2022-10-13T01:32:20.737Z,76.87
2022-10-13T01:33:48.922Z,76.87
2022-10-13T01:35:10.046Z,76.90
2022-10-13T01:36:58.844Z,77.03
2022-10-13T01:38:12.969Z,77.44
2022-10-13T01:39:24.084Z,77.25
2022-10-13T01:40:56.510Z,76.88
2022-10-13T01:42:11.435Z,77.01
2022-10-13T01:43:29.455Z,76.69
2022-10-13T01:44:36.388Z,76.46
2022-10-13T01:45:44.153Z,76.38
2022-10-13T01:46:48.256Z,76.44
2022-10-13T01:47:51.619Z,76.52
2022-10-13T01:48:55.973Z,76.71
2022-10-13T01:49:58.940Z,76.09
2022-10-13T01:51:00.605Z,76.46
2022-10-13T01:52:07.754Z,76.40
2022-10-13T01:53:11.364Z,76.39
2022-10-13T01:54:12.846Z,76.09
2022-10-13T01:55:14.731Z,76.27
2022-10-13T01:56:16.239Z,76.29
2022-10-13T01:57:38.893Z,76.48
2022-10-13T01:58:40.667Z,76.34
2022-10-13T01:59:42.143Z,76.46
2022-10-13T02:00:56.798Z,76.20
2022-10-13T02:02:21.508Z,76.61
2022-10-13T02:03:48.100Z,76.53
2022-10-13T02:04:49.506Z,76.40
2022-10-13T02:06:06.099Z,76.97
2022-10-13T02:07:34.531Z,77.03
2022-10-13T02:08:57.852Z,77.26
2022-10-13T02:10:14.519Z,77.35
2022-10-13T02:11:19.406Z,77.42
2022-10-13T02:12:29.974Z,77.57
2022-10-13T02:13:34.534Z,77.74
2022-10-13T02:14:40.055Z,78.19
2022-10-13T02:15:47.384Z,78.04
2022-10-13T02:16:50.664Z,78.13
2022-10-13T02:17:53.337Z,78.67
2022-10-13T02:18:57.637Z,78.68
2022-10-13T02:19:59.770Z,78.06
2022-10-13T02:21:03.640Z,78.05
2022-10-13T02:22:06.863Z,78.33
2022-10-13T02:23:13.810Z,78.12
2022-10-13T02:24:15.793Z,78.33
2022-10-13T02:25:17.721Z,78.51
2022-10-13T02:26:19.178Z,78.08
2022-10-13T02:27:22.360Z,78.15
2022-10-13T02:28:24.303Z,78.07
2022-10-13T02:29:25.958Z,77.98
2022-10-13T02:30:30.193Z,77.71
2022-10-13T02:31:31.605Z,77.28
2022-10-13T02:32:33.108Z,77.82
2022-10-13T02:33:34.570Z,77.47
2022-10-13T02:34:35.986Z,77.97
2022-10-13T02:35:38.479Z,77.79
2022-10-13T02:36:40.434Z,78.22
2022-10-13T02:37:41.871Z,78.35
2022-10-13T02:38:43.295Z,77.86
2022-10-13T02:39:44.769Z,78.05
2022-10-13T02:40:46.698Z,77.73
2022-10-13T02:41:48.160Z,77.92
2022-10-13T02:42:49.592Z,78.26
2022-10-13T02:43:51.002Z,78.10
2022-10-13T02:44:52.445Z,78.13
2022-10-13T02:45:54.323Z,77.92
2022-10-13T02:46:55.769Z,78.37
2022-10-13T02:47:58.047Z,78.62
2022-10-13T02:48:59.489Z,78.40
2022-10-13T02:50:00.940Z,78.71
2022-10-13T02:51:02.718Z,78.59
2022-10-13T02:52:04.567Z,79.02
2022-10-13T02:53:06.014Z,79.05
2022-10-13T02:54:07.740Z,79.24
2022-10-13T02:55:10.218Z,79.25
2022-10-13T02:56:11.656Z,79.12
2022-10-13T02:57:13.105Z,78.70
2022-10-13T02:58:14.946Z,78.67
2022-10-13T02:59:16.516Z,78.70
2022-10-13T03:00:18.307Z,78.23
2022-10-13T03:01:19.715Z,78.35
2022-10-13T03:02:21.481Z,77.58
2022-10-13T03:03:23.042Z,77.24
2022-10-13T03:04:24.479Z,77.40
2022-10-13T03:05:26.264Z,77.07
2022-10-13T03:06:27.712Z,76.79
2022-10-13T03:07:29.154Z,76.90
2022-10-13T03:08:32.959Z,76.91
2022-10-13T03:09:34.598Z,77.40
2022-10-13T03:10:36.551Z,77.19
2022-10-13T03:11:37.976Z,77.02
2022-10-13T03:12:39.423Z,77.31
2022-10-13T03:13:40.855Z,77.57
2022-10-13T03:14:42.296Z,77.96
2022-10-13T03:15:44.062Z,78.19
2022-10-13T03:16:45.533Z,78.12
2022-10-13T03:17:46.961Z,77.61
2022-10-13T03:18:48.427Z,77.87
2022-10-13T03:19:50.070Z,78.14
2022-10-13T03:21:02.646Z,77.91
2022-10-13T03:22:04.079Z,77.48
2022-10-13T03:23:07.063Z,77.13
2022-10-13T03:24:08.467Z,77.18
2022-10-13T03:25:09.830Z,77.80
2022-10-13T03:26:11.413Z,78.11
2022-10-13T03:27:12.941Z,78.24
2022-10-13T03:28:14.442Z,78.29
2022-10-13T03:29:18.159Z,78.23
2022-10-13T03:30:19.911Z,78.44
2022-10-13T03:31:21.456Z,78.31
2022-10-13T03:32:23.197Z,78.18
2022-10-13T03:33:24.739Z,77.80
2022-10-13T03:34:26.164Z,77.35
2022-10-13T03:35:27.942Z,77.53
2022-10-13T03:36:29.391Z,77.70
2022-10-13T03:37:30.803Z,77.84
2022-10-13T03:38:34.270Z,78.01
2022-10-13T03:39:35.709Z,77.86
2022-10-13T03:40:37.701Z,77.78
2022-10-13T03:41:39.132Z,77.73
2022-10-13T03:42:40.609Z,78.14
2022-10-13T03:43:43.269Z,78.16
2022-10-13T03:44:45.016Z,77.87
2022-10-13T03:45:55.794Z,77.74
2022-10-13T03:46:57.257Z,77.30
2022-10-13T03:47:58.755Z,77.64
2022-10-13T03:49:00.201Z,77.48
2022-10-13T03:50:01.881Z,77.42
2022-10-13T03:51:08.853Z,77.93
2022-10-13T03:52:10.364Z,77.70
2022-10-13T03:53:12.520Z,77.98
2022-10-13T03:54:14.056Z,77.85
2022-10-13T03:55:15.948Z,78.00
2022-10-13T03:56:20.313Z,78.02
2022-10-13T03:57:21.754Z,77.99
2022-10-13T03:58:24.983Z,77.84
2022-10-13T03:59:27.487Z,78.19
2022-10-13T04:00:29.233Z,78.44
2022-10-13T04:01:31.481Z,78.56
2022-10-13T04:02:32.904Z,78.68
2022-10-13T04:03:34.874Z,78.54
2022-10-13T04:04:37.933Z,78.73
2022-10-13T04:05:39.840Z,79.09
2022-10-13T04:06:41.517Z,78.93
2022-10-13T04:07:42.922Z,79.07
2022-10-13T04:08:44.427Z,78.73
2022-10-13T04:09:45.866Z,78.40
2022-10-13T04:10:47.610Z,78.72
2022-10-13T04:11:52.392Z,78.36
2022-10-13T04:12:53.855Z,78.61
2022-10-13T04:13:58.896Z,78.49
2022-10-13T04:15:00.658Z,78.55
2022-10-13T04:16:07.795Z,78.80
2022-10-13T04:17:09.347Z,78.98
2022-10-13T04:18:10.797Z,78.80
2022-10-13T04:19:14.267Z,79.35
2022-10-13T04:20:16.052Z,79.45
2022-10-13T04:21:17.469Z,79.21
2022-10-13T04:22:19.354Z,79.12
2022-10-13T04:23:21.123Z,79.30
2022-10-13T04:24:22.591Z,79.36
2022-10-13T04:25:24.383Z,79.63
2022-10-13T04:26:28.540Z,79.35
2022-10-13T04:27:30.852Z,79.03
2022-10-13T04:28:35.850Z,78.77
2022-10-13T04:29:37.435Z,78.85
2022-10-13T04:30:39.240Z,78.74
2022-10-13T04:31:43.833Z,79.00
2022-10-13T04:32:45.276Z,79.04
2022-10-13T04:33:46.719Z,79.38
2022-10-13T04:34:48.162Z,79.36
2022-10-13T04:35:49.985Z,79.43
2022-10-13T04:36:51.825Z,79.56
2022-10-13T04:37:53.328Z,79.43
2022-10-13T04:38:55.711Z,79.41
2022-10-13T04:39:57.140Z,79.51
2022-10-13T04:40:58.656Z,79.43
2022-10-13T04:42:00.096Z,79.26
2022-10-13T04:43:01.852Z,78.89
2022-10-13T04:44:03.269Z,78.63
2022-10-13T04:45:05.430Z,78.68
2022-10-13T04:46:13.667Z,78.83
2022-10-13T04:47:15.101Z,78.75
2022-10-13T04:48:16.595Z,78.55
2022-10-13T04:49:18.443Z,78.57
2022-10-13T04:50:20.036Z,78.78
2022-10-13T04:51:24.077Z,78.67
2022-10-13T04:52:25.635Z,78.82
2022-10-13T04:53:29.356Z,79.19
2022-10-13T04:54:30.839Z,79.13
2022-10-13T04:55:36.652Z,79.71
2022-10-13T04:56:38.082Z,79.69
2022-10-13T04:57:39.504Z,79.59
2022-10-13T04:58:43.077Z,79.72
2022-10-13T04:59:44.639Z,79.87
2022-10-13T05:00:46.858Z,79.60
2022-10-13T05:01:48.390Z,79.89
2022-10-13T05:02:50.026Z,80.12
2022-10-13T05:03:59.725Z,80.21
2022-10-13T05:05:01.517Z,80.17
2022-10-13T05:06:04.007Z,80.41
2022-10-13T05:07:17.445Z,80.39
2022-10-13T05:08:20.236Z,80.54
2022-10-13T05:09:22.448Z,80.67
2022-10-13T05:10:24.250Z,80.59
2022-10-13T05:11:26.777Z,80.58
2022-10-13T05:12:28.246Z,80.61
2022-10-13T05:13:30.536Z,80.53
2022-10-13T05:14:33.319Z,80.43
2022-10-13T05:15:35.134Z,80.80
2022-10-13T05:16:36.597Z,80.55
2022-10-13T05:17:38.052Z,80.83
2022-10-13T05:18:40.058Z,80.79
2022-10-13T05:19:41.500Z,80.59
2022-10-13T05:20:43.247Z,80.46
2022-10-13T05:21:44.836Z,80.26
2022-10-13T05:22:46.267Z,81.21
2022-10-13T05:23:48.609Z,81.40
2022-10-13T05:24:50.060Z,81.46
2022-10-13T05:25:51.472Z,81.32
2022-10-13T05:26:52.912Z,81.52
2022-10-13T05:27:54.420Z,81.66
2022-10-13T05:28:57.230Z,81.54
2022-10-13T05:29:59.116Z,81.52
2022-10-13T05:31:10.812Z,81.76
2022-10-13T05:32:12.261Z,81.91
2022-10-13T05:33:13.699Z,81.83
2022-10-13T05:34:15.181Z,82.04
2022-10-13T05:35:17.135Z,81.99
2022-10-13T05:36:23.007Z,82.08
2022-10-13T05:37:24.483Z,81.75
2022-10-13T05:38:26.235Z,81.48
2022-10-13T05:39:28.119Z,81.64
2022-10-13T05:40:29.609Z,81.71
2022-10-13T05:41:31.877Z,81.92
2022-10-13T05:42:35.623Z,81.75
2022-10-13T05:43:39.184Z,81.90
2022-10-13T05:44:40.687Z,81.84
2022-10-13T05:45:42.147Z,81.88
2022-10-13T05:46:44.532Z,81.95
2022-10-13T05:47:45.955Z,82.07
2022-10-13T05:48:47.506Z,82.03
2022-10-13T05:49:49.312Z,82.20
2022-10-13T05:50:50.924Z,82.16
2022-10-13T05:51:59.647Z,82.03
2022-10-13T05:53:01.133Z,82.04
2022-10-13T05:54:33.656Z,82.30
2022-10-13T05:55:35.739Z,82.00
2022-10-13T05:56:44.721Z,82.10
2022-10-13T05:57:51.272Z,82.19
2022-10-13T05:58:57.474Z,82.34
2022-10-13T06:00:04.790Z,82.27
2022-10-13T06:01:09.366Z,82.17
2022-10-13T06:02:14.764Z,82.29
2022-10-13T06:03:19.265Z,82.05
2022-10-13T06:04:25.978Z,82.30
2022-10-13T06:05:28.008Z,82.54
2022-10-13T06:06:31.612Z,82.57
2022-10-13T06:07:33.350Z,82.70
2022-10-13T06:08:34.970Z,82.47
2022-10-13T06:09:40.854Z,82.88
2022-10-13T06:10:43.458Z,82.38
2022-10-13T06:11:45.035Z,82.17
2022-10-13T06:12:46.475Z,82.10
2022-10-13T06:13:47.967Z,82.12
2022-10-13T06:14:49.759Z,82.33
2022-10-13T06:15:51.155Z,82.28
2022-10-13T06:16:52.565Z,82.12
2022-10-13T06:17:54.002Z,82.14
2022-10-13T06:18:55.489Z,82.36
2022-10-13T06:19:57.014Z,82.10
2022-10-13T06:20:58.615Z,82.28
2022-10-13T06:22:03.605Z,82.45
2022-10-13T06:23:05.516Z,82.16
2022-10-13T06:24:07.112Z,82.01
2022-10-13T06:25:09.484Z,81.87
2022-10-13T06:26:10.983Z,81.84
2022-10-13T06:27:12.466Z,81.62
2022-10-13T06:28:13.999Z,81.76
2022-10-13T06:29:15.556Z,82.05
2022-10-13T06:30:17.332Z,81.96
2022-10-13T06:31:18.761Z,81.77
2022-10-13T06:32:20.660Z,81.71
2022-10-13T06:33:24.143Z,82.14
2022-10-13T06:34:26.399Z,81.97
2022-10-13T06:35:27.881Z,82.01
2022-10-13T06:36:29.360Z,82.11
2022-10-13T06:37:30.910Z,81.91
2022-10-13T06:38:33.330Z,82.17
2022-10-13T06:39:35.579Z,82.24
2022-10-13T06:40:37.135Z,82.35
2022-10-13T06:41:38.654Z,82.22
2022-10-13T06:42:40.415Z,82.60
2022-10-13T06:43:42.127Z,82.22
2022-10-13T06:44:43.977Z,82.73
2022-10-13T06:45:45.387Z,82.69
2022-10-13T06:46:46.816Z,83.14
2022-10-13T06:47:48.236Z,83.32
2022-10-13T06:48:51.080Z,83.55
2022-10-13T06:49:52.531Z,83.29
2022-10-13T06:50:54.095Z,83.53
2022-10-13T06:51:55.529Z,83.61
2022-10-13T06:52:57.005Z,84.13
2022-10-13T06:53:58.768Z,84.18
2022-10-13T06:55:00.206Z,84.37
2022-10-13T06:56:03.337Z,84.70
2022-10-13T06:57:07.546Z,84.04
2022-10-13T06:58:09.944Z,83.95
2022-10-13T06:59:12.196Z,84.20
2022-10-13T07:00:13.899Z,84.37
2022-10-13T07:01:15.381Z,84.76
2022-10-13T07:02:16.855Z,85.11
2022-10-13T07:03:18.439Z,84.45
2022-10-13T07:04:20.197Z,84.82
2022-10-13T07:05:21.778Z,84.61
2022-10-13T07:06:23.664Z,84.71
2022-10-13T07:07:25.107Z,84.86
2022-10-13T07:08:26.608Z,84.28
2022-10-13T07:09:28.132Z,85.02
2022-10-13T07:10:29.592Z,85.04
2022-10-13T07:11:31.062Z,84.67
2022-10-13T07:12:32.496Z,84.71
2022-10-13T07:13:36.491Z,84.41
2022-10-13T07:14:41.623Z,83.87
2022-10-13T07:15:45.207Z,83.59
2022-10-13T07:16:50.006Z,83.95
2022-10-13T07:17:53.993Z,84.07
2022-10-13T07:18:55.757Z,83.96
2022-10-13T07:19:58.040Z,83.58
2022-10-13T07:21:01.915Z,84.01
2022-10-13T07:22:03.797Z,84.18
2022-10-13T07:23:05.202Z,83.85
2022-10-13T07:24:08.136Z,84.03
2022-10-13T07:25:09.768Z,84.15
2022-10-13T07:26:14.070Z,83.74
2022-10-13T07:27:15.529Z,83.62
2022-10-13T07:28:17.334Z,83.08
2022-10-13T07:29:19.238Z,83.80
2022-10-13T07:30:20.655Z,83.78
2022-10-13T07:31:22.420Z,83.73
2022-10-13T07:32:23.969Z,83.56
2022-10-13T07:33:25.442Z,83.67
2022-10-13T07:34:27.178Z,83.58
2022-10-13T07:35:30.820Z,83.75
2022-10-13T07:36:33.575Z,84.17
2022-10-13T07:37:35.465Z,83.55
2022-10-13T07:38:37.606Z,83.48
2022-10-13T07:39:39.028Z,83.29
2022-10-13T07:40:40.454Z,83.20
2022-10-13T07:41:41.876Z,83.52
2022-10-13T07:42:43.283Z,83.10
2022-10-13T07:43:44.794Z,82.56
2022-10-13T07:44:46.415Z,82.35
2022-10-13T07:45:47.862Z,82.84
2022-10-13T07:46:49.333Z,82.38
2022-10-13T07:47:50.797Z,82.80
2022-10-13T07:48:53.888Z,83.16
2022-10-13T07:49:55.826Z,83.40
2022-10-13T07:50:57.812Z,83.11
2022-10-13T07:51:59.287Z,82.74
2022-10-13T07:53:00.862Z,82.78
2022-10-13T07:54:02.622Z,82.50
2022-10-13T07:55:08.512Z,82.58
2022-10-13T07:56:12.074Z,82.65
2022-10-13T07:57:13.577Z,82.88
2022-10-13T07:58:15.408Z,83.16
2022-10-13T07:59:16.990Z,83.12
2022-10-13T08:00:18.843Z,84.21
2022-10-13T08:01:20.334Z,83.69
2022-10-13T08:02:22.121Z,83.90
2022-10-13T08:03:23.838Z,83.52
2022-10-13T08:04:25.551Z,83.37
2022-10-13T08:05:27.028Z,83.33
2022-10-13T08:06:28.577Z,82.96
2022-10-13T08:07:30.059Z,83.21
2022-10-13T08:08:32.148Z,83.58
2022-10-13T08:09:34.035Z,83.37
2022-10-13T08:10:35.629Z,83.26
2022-10-13T08:11:37.059Z,83.26
2022-10-13T08:12:38.823Z,82.90
2022-10-13T08:13:40.293Z,82.70
2022-10-13T08:14:42.126Z,82.26
2022-10-13T08:15:45.129Z,82.14
2022-10-13T08:16:48.799Z,81.80
2022-10-13T08:17:52.978Z,82.16
2022-10-13T08:18:54.788Z,82.04
2022-10-13T08:19:56.351Z,82.53
2022-10-13T08:21:33.024Z,82.55
2022-10-13T08:22:27.970Z,82.04
2022-10-13T08:23:30.463Z,82.12
2022-10-13T08:24:32.360Z,81.79
2022-10-13T08:25:39.014Z,82.18
2022-10-13T08:26:41.387Z,82.14
2022-10-13T08:27:50.969Z,81.55
2022-10-13T08:30:15.393Z,81.71
2022-10-13T08:31:17.181Z,81.95
2022-10-13T08:32:21.262Z,81.50
2022-10-13T08:33:26.116Z,81.62
2022-10-13T08:34:27.554Z,81.66
2022-10-13T08:35:34.120Z,81.67
2022-10-13T08:36:37.075Z,81.54
2022-10-13T08:37:38.527Z,82.19
2022-10-13T08:38:40.403Z,81.74
2022-10-13T08:39:42.267Z,81.80
2022-10-13T08:40:51.455Z,82.23
2022-10-13T08:41:54.319Z,82.39
2022-10-13T08:43:00.221Z,82.87
2022-10-13T08:44:56.755Z,82.62
2022-10-13T08:45:45.924Z,82.46
2022-10-13T08:46:56.960Z,82.77
2022-10-13T08:48:03.461Z,82.57
2022-10-13T08:49:06.980Z,82.39
2022-10-13T08:50:15.705Z,82.50
2022-10-13T08:51:17.479Z,82.58
2022-10-13T08:52:25.079Z,82.29
2022-10-13T08:53:37.186Z,82.42
2022-10-13T08:54:38.611Z,82.26
2022-10-13T08:55:51.777Z,82.65
2022-10-13T08:56:53.419Z,82.11
2022-10-13T08:57:55.070Z,82.31
2022-10-13T08:58:57.039Z,82.04
2022-10-13T08:59:58.621Z,81.99
2022-10-13T09:01:05.534Z,82.02
2022-10-13T09:02:33.352Z,81.94
2022-10-13T09:03:47.071Z,81.88
2022-10-13T09:04:52.296Z,81.97
2022-10-13T09:06:11.384Z,82.30
2022-10-13T09:07:18.137Z,82.11
2022-10-13T09:08:21.230Z,82.09
2022-10-13T09:09:22.688Z,82.60
2022-10-13T09:10:24.229Z,82.16
2022-10-13T09:11:32.364Z,82.13
2022-10-13T09:12:34.000Z,82.33
2022-10-13T09:13:35.494Z,81.86
2022-10-13T09:14:38.826Z,82.08
2022-10-13T09:15:50.509Z,81.99
2022-10-13T09:16:52.730Z,81.67
2022-10-13T09:18:11.992Z,82.10
2022-10-13T09:19:34.057Z,82.07
2022-10-13T09:20:35.613Z,81.83
2022-10-13T09:21:37.082Z,82.21
2022-10-13T09:22:39.868Z,81.56
2022-10-13T09:23:42.085Z,81.15
2022-10-13T09:24:43.743Z,81.23
2022-10-13T09:25:50.926Z,80.95
2022-10-13T09:27:05.830Z,80.85
2022-10-13T09:28:16.915Z,80.93
2022-10-13T09:29:24.502Z,80.40
2022-10-13T09:30:28.648Z,80.80
2022-10-13T09:31:32.148Z,80.87
2022-10-13T09:32:35.627Z,80.49
2022-10-13T09:33:37.704Z,80.92
2022-10-13T09:34:39.274Z,82.42
2022-10-13T09:35:42.083Z,82.58
2022-10-13T09:37:01.677Z,82.38
2022-10-13T09:38:13.136Z,82.48
2022-10-13T09:39:16.407Z,82.61
2022-10-13T09:40:21.856Z,82.75
2022-10-13T09:41:23.602Z,83.07
2022-10-13T09:42:30.231Z,82.63
2022-10-13T09:43:31.635Z,82.71
2022-10-13T09:44:33.407Z,83.09
2022-10-13T09:45:34.932Z,82.99
2022-10-13T09:46:58.429Z,82.84
2022-10-13T09:48:05.706Z,82.60
2022-10-13T09:49:35.064Z,82.17
2022-10-13T09:50:36.493Z,82.53
2022-10-13T09:51:44.901Z,82.06
2022-10-13T09:52:47.665Z,82.07
2022-10-13T09:53:49.292Z,83.03
2022-10-13T09:54:53.338Z,82.47
2022-10-13T09:56:46.136Z,82.27
2022-10-13T09:57:51.561Z,81.92
2022-10-13T09:59:08.228Z,81.63
2022-10-13T10:00:27.621Z,81.47
2022-10-13T10:01:34.856Z,80.87
2022-10-13T10:03:10.788Z,81.90
2022-10-13T10:04:24.736Z,82.13
2022-10-13T10:05:28.992Z,81.99
2022-10-13T10:06:30.428Z,81.77
2022-10-13T10:07:33.127Z,81.79
2022-10-13T10:09:03.762Z,81.48
2022-10-13T10:10:18.781Z,81.27
2022-10-13T10:11:29.382Z,81.82
2022-10-13T10:12:35.107Z,81.86
2022-10-13T10:13:36.776Z,81.94
2022-10-13T10:14:38.705Z,82.07
2022-10-13T10:15:49.775Z,81.87
2022-10-13T10:17:05.013Z,82.02
2022-10-13T10:18:14.411Z,82.00
2022-10-13T10:19:43.022Z,81.65
2022-10-13T10:20:59.822Z,81.98
2022-10-13T10:22:20.747Z,81.83
2022-10-13T10:23:31.773Z,81.18
2022-10-13T10:25:10.394Z,80.57
2022-10-13T10:26:48.460Z,80.46
2022-10-13T10:28:02.307Z,81.05
2022-10-13T10:29:13.174Z,80.53
2022-10-13T10:30:17.967Z,80.76
2022-10-13T10:31:33.015Z,80.87
2022-10-13T10:32:37.240Z,80.60
2022-10-13T10:33:59.872Z,80.71
2022-10-13T10:35:14.255Z,80.60
2022-10-13T10:36:21.786Z,81.17
2022-10-13T10:37:54.647Z,81.01
2022-10-13T10:39:16.882Z,80.71
2022-10-13T10:40:36.872Z,79.32
2022-10-13T10:41:54.404Z,79.20
2022-10-13T10:43:26.543Z,79.98
2022-10-13T10:44:36.495Z,79.91
2022-10-13T10:45:40.162Z,80.08
2022-10-13T10:46:51.914Z,79.74
2022-10-13T10:48:24.483Z,80.18
2022-10-13T10:49:31.501Z,80.12
2022-10-13T10:50:34.770Z,79.46
2022-10-13T10:51:39.075Z,79.34
2022-10-13T10:52:46.903Z,80.00
2022-10-13T10:53:54.402Z,80.10
2022-10-13T10:55:44.052Z,79.95
2022-10-13T10:57:19.874Z,79.75
2022-10-13T10:58:43.643Z,79.74
2022-10-13T11:00:05.984Z,79.80
2022-10-13T11:01:28.021Z,79.52
2022-10-13T11:02:52.601Z,79.15
2022-10-13T11:04:18.866Z,79.19
2022-10-13T11:05:20.855Z,79.19
2022-10-13T11:06:32.306Z,78.54
2022-10-13T11:07:33.991Z,78.75
2022-10-13T11:08:38.393Z,78.56
2022-10-13T11:09:42.786Z,79.50
2022-10-13T11:10:44.240Z,79.33
2022-10-13T11:11:45.670Z,79.38
2022-10-13T11:13:14.956Z,80.07
2022-10-13T11:14:29.351Z,80.15
2022-10-13T11:15:43.769Z,79.92
2022-10-13T11:17:06.984Z,79.35
2022-10-13T11:18:47.833Z,78.40
2022-10-13T11:19:49.764Z,78.30
2022-10-13T11:20:59.247Z,78.23
2022-10-13T11:22:00.943Z,78.00
2022-10-13T11:23:05.471Z,77.95
2022-10-13T11:24:41.706Z,77.55
2022-10-13T11:25:45.809Z,77.45
2022-10-13T11:26:47.220Z,78.07
2022-10-13T11:27:48.991Z,77.65
2022-10-13T11:28:50.573Z,77.25
2022-10-13T11:29:58.022Z,76.96
2022-10-13T11:31:05.420Z,76.42
2022-10-13T11:32:32.676Z,76.29
2022-10-13T11:33:40.101Z,76.23
2022-10-13T11:35:17.517Z,76.14
2022-10-13T11:36:32.813Z,76.03
2022-10-13T11:37:48.276Z,76.62
2022-10-13T11:39:35.257Z,77.60
2022-10-13T11:41:04.375Z,77.40
2022-10-13T11:42:12.833Z,77.24
2022-10-13T11:43:36.678Z,76.63
2022-10-13T11:44:52.045Z,76.39
2022-10-13T11:46:16.481Z,76.67
2022-10-13T11:47:54.096Z,76.53
2022-10-13T11:49:23.071Z,76.71
2022-10-13T11:50:58.268Z,76.50
2022-10-13T11:52:12.316Z,76.26
2022-10-13T11:53:41.755Z,76.05
2022-10-13T11:55:02.942Z,76.74
2022-10-13T11:56:04.483Z,77.16
2022-10-13T11:57:23.670Z,77.14
2022-10-13T11:58:28.323Z,76.55
2022-10-13T11:59:37.446Z,76.48
2022-10-13T12:01:03.179Z,76.71
2022-10-13T12:02:10.639Z,76.75
2022-10-13T12:03:21.522Z,76.42
2022-10-13T12:04:25.283Z,76.36
2022-10-13T12:05:29.193Z,76.53
2022-10-13T12:06:35.603Z,76.41
2022-10-13T12:07:41.594Z,76.70
2022-10-13T12:08:47.556Z,76.62
2022-10-13T12:09:54.330Z,76.63
2022-10-13T12:10:58.172Z,76.39
2022-10-13T12:12:12.402Z,76.51
2022-10-13T12:13:24.199Z,76.25
2022-10-13T12:14:43.178Z,76.43
2022-10-13T12:15:44.891Z,77.13
2022-10-13T12:18:20.838Z,77.41
2022-10-13T12:19:26.633Z,77.30
2022-10-13T12:20:31.192Z,76.75
2022-10-13T12:21:32.768Z,76.84
2022-10-13T12:22:39.342Z,76.82
2022-10-13T12:23:42.238Z,76.82
2022-10-13T12:24:43.794Z,76.50
2022-10-13T12:25:56.729Z,76.87
2022-10-13T12:26:58.978Z,76.55
2022-10-13T12:28:01.497Z,76.81
2022-10-13T12:29:10.270Z,77.53
2022-10-13T12:30:30.597Z,77.81
2022-10-13T12:31:43.964Z,77.85
2022-10-13T12:32:50.680Z,76.93
2022-10-13T12:34:02.786Z,76.77
2022-10-13T12:35:31.881Z,75.96
2022-10-13T12:36:35.447Z,75.90
2022-10-13T12:37:37.399Z,75.58
2022-10-13T12:38:43.468Z,75.76
2022-10-13T12:39:45.287Z,76.15
2022-10-13T12:40:49.515Z,76.25
2022-10-13T12:41:52.327Z,76.10
2022-10-13T12:42:54.019Z,75.94
2022-10-13T12:43:56.107Z,75.95
2022-10-13T12:45:00.472Z,76.28
2022-10-13T12:46:01.944Z,76.45
2022-10-13T12:47:04.111Z,76.39
2022-10-13T12:48:05.948Z,75.79
2022-10-13T12:49:31.835Z,75.80
2022-10-13T12:50:36.971Z,76.02
2022-10-13T12:51:39.487Z,76.18
2022-10-13T12:52:41.044Z,76.06
2022-10-13T12:53:42.927Z,76.03
2022-10-13T12:54:55.769Z,75.70
2022-10-13T12:56:00.683Z,75.48
2022-10-13T12:57:16.451Z,75.72
2022-10-13T12:58:33.533Z,75.93
2022-10-13T12:59:41.583Z,75.81
2022-10-13T13:00:43.188Z,75.92
2022-10-13T13:01:45.861Z,76.07
2022-10-13T13:02:56.518Z,76.51
2022-10-13T13:04:01.527Z,76.61
2022-10-13T13:05:02.992Z,76.06
2022-10-13T13:06:13.312Z,76.57
2022-10-13T13:07:36.944Z,76.43
2022-10-13T13:08:39.746Z,76.18
2022-10-13T13:09:41.152Z,75.77
2022-10-13T13:10:58.295Z,75.98
2022-10-13T13:12:20.777Z,75.81
2022-10-13T13:13:23.933Z,75.13
2022-10-13T13:14:36.728Z,75.00
2022-10-13T13:15:38.836Z,74.81
2022-10-13T13:16:40.278Z,75.25
2022-10-13T13:17:58.793Z,75.30
2022-10-13T13:19:00.758Z,75.09
2022-10-13T13:20:18.368Z,74.41
2022-10-13T13:21:20.210Z,74.37
2022-10-13T13:22:22.495Z,74.71
2022-10-13T13:23:24.498Z,74.67
2022-10-13T13:24:35.963Z,75.03
2022-10-13T13:25:40.832Z,74.31
2022-10-13T13:26:46.030Z,74.06
2022-10-13T13:27:48.230Z,74.04
2022-10-13T13:28:54.078Z,74.80
2022-10-13T13:29:55.890Z,74.88
2022-10-13T13:30:58.287Z,74.89
2022-10-13T13:31:59.707Z,74.73
2022-10-13T13:33:01.333Z,74.40
2022-10-13T13:34:02.827Z,74.49
2022-10-13T13:35:05.314Z,74.25
2022-10-13T13:36:23.981Z,74.40
2022-10-13T13:37:35.294Z,74.39
2022-10-13T13:38:36.807Z,73.90
2022-10-13T13:39:38.237Z,73.98
2022-10-13T13:40:39.685Z,73.84
2022-10-13T13:41:41.259Z,73.62
2022-10-13T13:42:42.800Z,73.31
2022-10-13T13:43:44.602Z,73.43
2022-10-13T13:44:46.040Z,73.75
2022-10-13T13:45:47.555Z,73.41
2022-10-13T13:46:48.990Z,73.20
2022-10-13T13:47:50.579Z,73.03
2022-10-13T13:48:52.060Z,73.13
2022-10-13T13:49:54.866Z,72.96
2022-10-13T13:50:56.325Z,73.19
2022-10-13T13:51:57.778Z,73.03
2022-10-13T13:52:59.821Z,72.89
2022-10-13T13:54:01.348Z,73.55
2022-10-13T13:55:02.958Z,73.52
2022-10-13T13:56:05.048Z,74.02
2022-10-13T13:57:06.668Z,74.24
2022-10-13T13:58:09.784Z,74.41
2022-10-13T13:59:11.221Z,74.42
2022-10-13T14:00:14.844Z,74.24
2022-10-13T14:01:16.402Z,74.46
2022-10-13T14:02:21.024Z,74.08
2022-10-13T14:03:22.518Z,73.73
2022-10-13T14:04:24.025Z,73.75
2022-10-13T14:05:25.955Z,73.39
2022-10-13T14:06:27.540Z,73.60
2022-10-13T14:07:29.031Z,73.49
2022-10-13T14:08:32.065Z,73.30
2022-10-13T14:09:33.610Z,73.30
2022-10-13T14:10:35.499Z,73.27
2022-10-13T14:11:36.941Z,73.17
2022-10-13T14:12:38.525Z,72.97
2022-10-13T14:13:39.978Z,72.81